Latest Weather Observations for Mackay

IDQ60801

Issued at 11:35 pm EST Saturday 1 November 2014 (issued every 30 minutes, with the page automatically refreshed every 10 minutes)

About weather observations | Map of weather stations | Latest weather observations for QLD | Other Formats
Station Details ID: 033119 Name: MACKAY M.O Lat: -21.12 Lon: 149.22 Height: 30.26 m
Data from the previous 72 hours. | See also: Recent months at Mackay
Date/Time
EST
Temp
°C
App
Temp
°C
Dew
Point
Rel
Hum
%
Delta-T
°C
Wind Press
QNH
hPa
Press
MSL
hPa
Rain
since 9 am
mm
Dir
 
Spd
km/h
Gust
km/h
Spd
kts
Gust
kts
01/11:30pm 24.3 25.7 21.1 82 2.1 N 15 22 8 12 1013.9 1013.7 0.0
01/11:19pm 24.4 25.4 21.1 82 2.2 N 17 32 9 17 1013.9 1013.7 0.0
01/11:01pm 24.4 25.9 21.2 82 2.1 N 15 24 8 13 1014.1 1013.9 0.0
01/11:00pm 24.4 25.9 21.2 82 2.1 N 15 24 8 13 1014.1 1013.9 0.0
01/10:30pm 24.5 25.5 21.0 81 2.3 N 17 26 9 14 1014.2 1014.0 0.0
01/10:00pm 24.4 25.3 20.9 81 2.3 N 17 28 9 15 1014.3 1014.1 0.0
01/09:30pm 24.4 26.0 20.7 80 2.4 N 13 19 7 10 1014.4 1014.2 0.0
01/09:00pm 24.2 24.9 20.4 79 2.5 N 17 26 9 14 1014.1 1013.9 0.0
01/08:30pm 24.1 25.8 20.2 79 2.5 N 11 17 6 9 1014.1 1013.9 0.0
01/08:00pm 24.2 25.4 20.0 77 2.7 N 13 20 7 11 1013.9 1013.7 0.0
01/07:30pm 24.2 25.8 19.9 77 2.8 N 11 20 6 11 1013.8 1013.6 0.0
01/07:00pm 24.1 25.3 19.8 77 2.8 N 13 20 7 11 1013.3 1013.1 0.0
01/06:30pm 24.2 25.3 19.7 76 2.9 N 13 20 7 11 1013.0 1012.8 0.0
01/06:00pm 24.5 25.1 19.4 73 3.3 N 15 24 8 13 1012.6 1012.4 0.0
01/05:30pm 25.3 25.9 19.4 70 3.8 N 15 24 8 13 1012.3 1012.1 0.0
01/05:00pm 25.9 26.3 19.0 65 4.4 N 15 22 8 12 1012.1 1011.9 0.0
01/04:30pm 26.5 26.8 18.7 62 5.0 NNE 15 26 8 14 1012.1 1011.9 0.0
01/04:00pm 27.3 27.1 18.4 58 5.7 NNE 17 32 9 17 1011.8 1011.6 0.0
01/03:30pm 28.1 28.2 18.4 55 6.2 NNE 15 24 8 13 1012.0 1011.8 0.0
01/03:00pm 28.0 27.6 18.1 55 6.3 NNE 17 26 9 14 1012.2 1012.0 0.0
01/02:30pm 28.4 28.2 17.5 51 6.9 NNE 15 24 8 13 1012.5 1012.3 0.0
01/02:00pm 28.6 28.4 17.5 51 7.0 NNE 15 24 8 13 1013.0 1012.8 0.0
01/01:30pm 29.3 29.0 17.3 48 7.6 NNE 15 24 8 13 1013.6 1013.4 0.0
01/01:00pm 29.7 29.3 17.2 47 7.9 NNE 15 24 8 13 1014.1 1013.9 0.0
01/12:30pm 29.1 28.6 17.0 48 7.6 NNE 15 26 8 14 1014.4 1014.2 0.0
01/12:00pm 29.6 29.3 17.3 47 7.8 NNE 15 24 8 13 1014.9 1014.7 0.0
01/11:30am 29.4 29.4 17.2 47 7.7 NNE 13 20 7 11 1015.2 1015.0 0.0
01/11:00am 30.3 30.7 17.2 45 8.3 NNE 11 20 6 11 1015.4 1015.2 0.0
01/10:30am 28.8 28.8 17.2 49 7.3 NNE 13 22 7 12 1015.7 1015.5 0.0
01/10:00am 29.4 29.4 17.2 47 7.7 NNE 13 22 7 12 1015.9 1015.7 0.0
01/09:30am 28.7 28.7 17.3 50 7.2 NNE 13 20 7 11 1016.1 1015.9 0.0
01/09:00am 27.4 27.4 17.2 53 6.4 N 13 20 7 11 1016.3 1016.1 0.0
01/08:30am 27.9 28.5 17.6 53 6.5 NNE 11 17 6 9 1016.4 1016.2 0.0
01/08:00am 26.7 27.0 17.1 55 6.0 NNE 11 20 6 11 1016.0 1015.8 0.0
01/07:30am 24.7 25.0 17.1 62 4.7 N 11 17 6 9 1015.8 1015.6 0.0
01/07:00am 25.0 25.5 17.5 63 4.7 NNE 11 17 6 9 1015.3 1015.1 0.0
01/06:30am 23.8 24.2 17.3 67 4.0 NNE 11 19 6 10 1015.1 1014.9 0.0
01/06:00am 23.5 24.4 17.5 69 3.7 N 9 15 5 8 1014.9 1014.7 0.0
01/05:30am 22.7 23.4 17.9 74 3.0 N 11 17 6 9 1014.5 1014.3 0.0
01/05:00am 22.5 23.6 18.0 75 2.8 N 9 17 5 9 1014.2 1014.0 0.0
01/04:30am 22.4 23.5 18.1 76 2.7 N 9 15 5 8 1014.0 1013.8 0.0
01/04:00am 22.5 23.7 18.2 76 2.7 N 9 19 5 10 1013.7 1013.5 0.0
01/03:30am 22.2 23.5 18.4 79 2.4 N 9 13 5 7 1013.6 1013.4 0.0
01/03:00am 22.4 23.8 18.6 79 2.4 NNE 9 15 5 8 1013.4 1013.2 0.0
01/02:30am 22.4 23.9 18.9 80 2.2 NE 9 19 5 10 1013.4 1013.2 0.0
01/02:00am 22.6 24.7 19.3 81 2.1 NNE 7 15 4 8 1013.6 1013.4 0.0
01/01:30am 22.6 24.1 19.0 80 2.3 NNE 9 15 5 8 1014.0 1013.8 0.0
01/01:00am 22.4 23.9 18.8 80 2.3 N 9 13 5 7 1014.2 1014.0 0.0
01/12:30am 22.2 24.0 18.7 80 2.2 NNE 7 13 4 7 1014.6 1014.4 0.0
01/12:00am 22.5 24.4 18.9 80 2.3 NNE 7 17 4 9 1014.9 1014.7 0.0
 
Date/Time
EST
Temp
°C
App
Temp
°C
Dew
Point
Rel
Hum
%
Delta-T
°C
Wind Press
QNH
hPa
Press
MSL
hPa
Rain
since 9 am
mm
Dir
 
Spd
km/h
Gust
km/h
Spd
kts
Gust
kts
31/11:30pm 22.8 24.4 19.2 80 2.3 NNE 9 17 5 9 1015.1 1014.9 0.0
31/11:00pm 22.8 23.9 18.8 78 2.5 NNE 11 20 6 11 1015.3 1015.1 0.0
31/10:30pm 23.0 24.3 19.2 79 2.4 NE 11 19 6 10 1015.3 1015.1 0.0
31/10:00pm 22.8 24.5 19.3 80 2.2 NNE 9 15 5 8 1015.5 1015.3 0.0
31/09:30pm 22.9 24.4 19.0 78 2.5 NNE 9 13 5 7 1015.6 1015.4 0.0
31/09:00pm 23.2 24.8 19.1 78 2.6 NNE 9 15 5 8 1015.3 1015.1 0.0
31/08:30pm 23.3 24.5 19.1 77 2.7 NNE 11 15 6 8 1015.0 1014.8 0.0
31/08:00pm 23.4 25.5 19.3 78 2.6 NNE 7 13 4 7 1014.9 1014.7 0.0
31/07:30pm 23.5 25.4 18.9 75 2.9 NE 7 15 4 8 1014.9 1014.7 0.0
31/07:00pm 23.8 25.3 18.9 74 3.1 NNE 9 15 5 8 1014.6 1014.4 0.0
31/06:30pm 24.1 25.1 18.6 71 3.5 NE 11 17 6 9 1014.3 1014.1 0.0
31/06:00pm 24.6 26.1 18.8 70 3.7 NE 9 15 5 8 1014.2 1014.0 0.0
31/05:30pm 25.7 27.3 19.2 67 4.2 NNE 9 13 5 7 1013.9 1013.7 0.0
31/05:00pm 26.2 27.7 19.0 64 4.6 NE 9 17 5 9 1013.5 1013.3 0.0
31/04:30pm 26.5 27.8 19.2 64 4.7 NE 11 17 6 9 1013.2 1013.0 0.0
31/04:00pm 27.7 29.0 19.2 60 5.5 NE 11 19 6 10 1013.2 1013.0 0.0
31/03:30pm 26.8 27.8 19.4 64 4.8 ENE 13 20 7 11 1013.3 1013.1 0.0
31/03:00pm 27.6 28.8 19.9 63 5.0 ENE 13 20 7 11 1013.4 1013.2 0.0
31/02:30pm 28.3 29.6 20.2 61 5.3 ENE 13 22 7 12 1013.7 1013.5 0.0
31/02:00pm 28.3 29.5 19.9 60 5.5 NE 13 20 7 11 1013.8 1013.6 0.0
31/01:30pm 28.6 29.8 19.9 59 5.7 NE 13 24 7 13 1013.8 1013.6 0.0
31/01:00pm 29.6 30.4 19.1 53 6.8 NNE 13 20 7 11 1014.2 1014.0 0.0
31/12:30pm 28.9 29.5 19.5 57 6.1 NNE 15 22 8 12 1014.8 1014.6 0.0
31/12:00pm 30.0 30.8 19.1 52 7.1 NNE 13 20 7 11 1015.2 1015.0 0.0
31/11:30am 30.4 31.1 19.7 52 7.0 NNE 15 26 8 14 1015.4 1015.2 0.0
31/11:00am 30.0 31.1 20.5 56 6.3 NNE 15 24 8 13 1015.5 1015.3 0.0
31/10:30am 29.7 30.9 20.0 56 6.4 NNE 13 22 7 12 1015.7 1015.5 0.0
31/10:00am 29.4 30.5 19.6 55 6.4 NNE 13 20 7 11 1015.9 1015.7 0.0
31/09:30am 28.9 30.4 19.7 57 6.0 NNE 11 19 6 10 1016.0 1015.8 0.0
31/09:00am 28.3 29.7 19.5 59 5.7 NNE 11 20 6 11 1016.0 1015.8 0.0
31/08:30am 27.1 28.1 19.4 62 5.0 NNE 13 19 7 10 1015.9 1015.7 0.0
31/08:00am 26.8 28.5 19.4 64 4.8 N 9 17 5 9 1015.8 1015.6 0.0
31/07:30am 26.0 27.9 19.7 68 4.1 NNE 9 17 5 9 1015.7 1015.5 0.0
31/07:00am 23.9 26.9 20.0 79 2.5 WSW 4 7 2 4 1015.5 1015.3 0.0
31/06:30am 23.2 25.7 19.8 81 2.2 SSE 6 9 3 5 1015.2 1015.0 0.0
31/06:00am 23.9 26.0 20.2 80 2.4 NNE 9 15 5 8 1014.6 1014.4 0.0
31/05:30am 22.5 24.7 19.7 84 1.8 N 7 11 4 6 1014.1 1013.9 0.0
31/05:00am 22.1 24.2 19.4 85 1.7 N 7 11 4 6 1013.9 1013.7 0.0
31/04:30am 22.8 24.5 19.4 81 2.2 N 9 15 5 8 1013.7 1013.5 0.0
31/04:00am 22.3 23.9 19.1 82 2.0 N 9 15 5 8 1013.6 1013.4 0.0
31/03:30am 22.6 24.8 19.5 82 2.0 N 7 11 4 6 1013.6 1013.4 0.0
31/03:00am 22.8 24.8 19.2 80 2.3 N 7 11 4 6 1013.7 1013.5 0.0
31/02:30am 22.4 24.5 19.4 83 1.9 N 7 13 4 7 1013.8 1013.6 0.0
31/02:00am 22.6 24.2 19.1 80 2.2 NNE 9 15 5 8 1013.7 1013.5 0.0
31/01:30am 22.5 23.7 19.0 80 2.2 NNE 11 17 6 9 1014.0 1013.8 0.0
31/01:00am 22.4 23.9 18.9 80 2.2 NNE 9 17 5 9 1014.1 1013.9 0.0
31/12:30am 22.3 24.5 19.3 83 1.9 NNE 6 9 3 5 1015.1 1014.9 0.0
31/12:00am 22.7 24.7 19.2 80 2.2 N 7 11 4 6 1014.8 1014.6 0.0
 
Date/Time
EST
Temp
°C
App
Temp
°C
Dew
Point
Rel
Hum
%
Delta-T
°C
Wind Press
QNH
hPa
Press
MSL
hPa
Rain
since 9 am
mm
Dir
 
Spd
km/h
Gust
km/h
Spd
kts
Gust
kts
30/11:30pm 22.9 25.0 19.3 80 2.3 N 7 11 4 6 1014.8 1014.6 0.0
30/11:00pm 22.9 24.7 19.6 81 2.1 NNE 9 15 5 8 1015.0 1014.8 0.0
30/10:30pm 23.2 25.5 19.8 81 2.2 NNE 7 13 4 7 1015.2 1015.0 0.0
30/10:00pm 23.5 25.1 19.9 80 2.3 NNE 11 17 6 9 1015.1 1014.9 0.0
30/09:30pm 23.5 25.5 19.9 80 2.3 NNE 9 15 5 8 1015.0 1014.8 0.0
30/09:00pm 23.5 25.4 19.8 80 2.4 NE 9 17 5 9 1014.7 1014.5 0.0
30/08:30pm 23.7 25.7 20.0 80 2.4 NNE 9 15 5 8 1014.5 1014.3 0.0
30/08:00pm 24.1 26.6 20.2 79 2.5 NNE 7 17 4 9 1014.6 1014.4 0.0
30/07:30pm 24.0 26.2 20.3 80 2.4 N 9 17 5 9 1014.6 1014.4 0.0
30/07:00pm 24.2 26.2 19.9 77 2.8 NNE 9 15 5 8 1014.4 1014.2 0.0
30/06:30pm 24.4 25.9 19.7 75 3.0 NNE 11 19 6 10 1013.8 1013.6 0.0
30/06:00pm 24.7 27.0 20.6 78 2.7 NNE 9 15 5 8 1013.5 1013.3 0.0
30/05:30pm 25.1 27.0 20.5 75 3.0 NE 11 19 6 10 1013.4 1013.2 0.0
30/05:00pm 26.5 28.0 20.6 70 3.9 NNE 13 19 7 10 1013.1 1012.9 0.0
30/04:30pm 26.6 28.3 20.2 68 4.2 NE 11 20 6 11 1012.7 1012.5 0.0
30/04:00pm 27.4 28.7 20.1 64 4.8 NE 13 20 7 11 1012.6 1012.4 0.0
30/03:30pm 28.2 30.1 20.6 63 5.0 NNE 11 20 6 11 1012.7 1012.5 0.0
30/03:00pm 28.8 30.0 20.0 59 5.8 NNE 13 24 7 13 1012.7 1012.5 0.0
30/02:30pm 28.9 30.0 20.4 60 5.6 NNE 15 24 8 13 1012.8 1012.6 0.0
30/02:00pm 30.0 31.6 20.8 57 6.1 NNE 13 20 7 11 1013.0 1012.8 0.0
30/01:30pm 29.6 30.3 20.5 58 6.0 NNE 17 24 9 13 1013.2 1013.0 0.0
30/01:00pm 29.8 31.3 20.6 57 6.1 NNE 13 22 7 12 1013.5 1013.3 0.0
30/12:30pm 29.7 30.2 20.1 56 6.3 NNE 17 26 9 14 1013.8 1013.6 0.0
30/12:00pm 30.3 31.7 20.3 55 6.6 NNE 13 22 7 12 1014.3 1014.1 0.0
30/11:30am 30.3 30.9 20.3 55 6.6 NNE 17 24 9 13 1014.6 1014.4 0.0
30/11:00am 30.7 31.8 20.5 54 6.8 NNE 15 26 8 14 1014.8 1014.6 0.0
30/10:30am 30.5 31.6 20.4 54 6.7 NNE 15 24 8 13 1015.0 1014.8 0.0
30/10:00am 29.6 30.8 20.7 58 5.9 NNE 15 24 8 13 1015.1 1014.9 0.0
30/09:30am 29.0 30.2 20.7 61 5.5 N 15 26 8 14 1014.9 1014.7 0.0
30/09:00am 28.4 29.1 19.7 59 5.7 NNE 15 30 8 16 1014.5 1014.3 0.0
30/08:30am 28.0 28.6 20.2 62 5.1 N 17 28 9 15 1014.8 1014.6 0.0
30/08:00am 26.4 27.0 19.4 65 4.5 N 15 20 8 11 1015.2 1015.0 0.0
30/07:30am 24.0 25.6 20.0 78 2.6 N 11 17 6 9 1015.4 1015.2 0.0
30/07:00am 23.5 25.3 20.3 82 2.1 N 11 15 6 8 1015.7 1015.5 0.0
30/06:30am 21.3 23.8 20.2 93 0.7 N 7 11 4 6 1015.7 1015.5 0.0
30/06:00am 20.6 22.9 19.8 95 0.5 NNW 7 9 4 5 1015.8 1015.6 0.0
30/05:30am 20.8 23.2 20.0 95 0.5 NNW 7 9 4 5 1016.0 1015.8 0.0
30/05:00am 20.8 21.3 20.0 95 0.5 SW 17 24 9 13 1016.4 1016.2 0.0
30/04:30am 20.6 22.6 20.0 96 0.4 SW 9 11 5 6 1014.5 1014.3 0.0
30/04:00am 21.1 23.8 20.2 95 0.6 W 6 7 3 4 1013.8 1013.6 0.0
30/03:30am 21.4 24.5 20.3 93 0.7 WNW 4 7 2 4 1013.3 1013.1 0.0
30/03:00am 21.7 24.3 20.5 93 0.8 NW 7 11 4 6 1013.1 1012.9 0.0
30/02:30am 22.3 25.1 20.8 91 1.0 WNW 7 11 4 6 1012.8 1012.6 0.0
30/02:00am 22.4 24.4 20.7 90 1.1 NNW 11 15 6 8 1012.4 1012.2 0.0
30/01:30am 22.6 24.2 20.8 89 1.2 NNW 13 17 7 9 1012.5 1012.3 0.0
30/01:00am 22.7 24.7 20.7 88 1.3 NNW 11 17 6 9 1012.9 1012.7 0.0
30/12:30am 22.9 24.9 20.8 88 1.4 NNW 11 17 6 9 1013.1 1012.9 0.0
30/12:00am 23.3 25.0 20.9 86 1.6 NNW 13 22 7 12 1013.4 1013.2 0.0

Other Formats:

Comma delimited format used in spreadsheet applications
http://www.bom.gov.au/fwo/IDQ60801/IDQ60801.94367.axf

JavaScript Object Notation format (JSON) in row-major order
http://www.bom.gov.au/fwo/IDQ60801/IDQ60801.94367.json